createdAt,value
2022-10-06T00:01:19.143Z,4.79
2022-10-06T00:03:47.304Z,4.74
2022-10-06T00:06:19.342Z,4.66
2022-10-06T00:08:48.437Z,4.59
2022-10-06T00:11:17.098Z,4.51
2022-10-06T00:13:46.013Z,4.44
2022-10-06T00:16:18.626Z,4.39
2022-10-06T00:18:47.649Z,4.34
2022-10-06T00:21:16.187Z,4.28
2022-10-06T00:23:44.913Z,4.24
2022-10-06T00:26:16.434Z,4.20
2022-10-06T00:28:47.497Z,4.19
2022-10-06T00:31:19.269Z,4.19
2022-10-06T00:33:49.346Z,4.19
2022-10-06T00:36:17.788Z,4.19
2022-10-06T00:38:47.815Z,4.19
2022-10-06T00:41:17.782Z,4.20
2022-10-06T00:43:48.064Z,4.21
2022-10-06T00:46:29.259Z,4.22
2022-10-06T00:49:13.099Z,4.20
2022-10-06T00:51:45.708Z,4.20
2022-10-06T00:54:14.589Z,4.18
2022-10-06T00:56:42.496Z,4.18
2022-10-06T00:59:13.079Z,4.15
2022-10-06T01:01:47.260Z,4.14
2022-10-06T01:04:17.907Z,4.13
2022-10-06T01:06:50.184Z,4.13
2022-10-06T01:09:21.483Z,4.13
2022-10-06T01:11:54.477Z,4.14
2022-10-06T01:14:26.571Z,4.13
2022-10-06T01:17:14.332Z,4.11
2022-10-06T01:19:58.977Z,4.07
2022-10-06T01:22:39.156Z,4.05
2022-10-06T01:25:10.597Z,4.04
2022-10-06T01:27:42.797Z,4.06
2022-10-06T01:30:16.388Z,4.06
2022-10-06T01:32:45.960Z,4.06
2022-10-06T01:35:14.139Z,4.05
2022-10-06T01:37:42.195Z,4.04
2022-10-06T01:40:10.550Z,4.03
2022-10-06T01:42:39.117Z,4.02
2022-10-06T01:45:08.731Z,4.01
2022-10-06T01:47:37.836Z,4.00
2022-10-06T01:50:09.060Z,3.99
2022-10-06T01:52:37.607Z,3.98
2022-10-06T01:55:06.432Z,3.97
2022-10-06T01:57:40.719Z,3.95
2022-10-06T02:00:11.016Z,3.94
2022-10-06T02:02:42.725Z,3.93
2022-10-06T02:05:11.497Z,3.92
2022-10-06T02:07:42.786Z,3.94
2022-10-06T02:10:14.319Z,3.95
2022-10-06T02:12:43.815Z,3.96
2022-10-06T02:15:11.485Z,3.94
2022-10-06T02:17:40.363Z,3.91
2022-10-06T02:20:09.435Z,3.86
2022-10-06T02:22:40.452Z,3.80
2022-10-06T02:25:08.896Z,3.75
2022-10-06T02:27:38.883Z,3.71
2022-10-06T02:30:08.502Z,3.66
2022-10-06T02:32:39.834Z,3.63
2022-10-06T02:35:10.111Z,3.60
2022-10-06T02:37:38.457Z,3.56
2022-10-06T02:40:08.857Z,3.53
2022-10-06T02:42:38.178Z,3.51
2022-10-06T02:45:08.346Z,3.48
2022-10-06T02:47:37.951Z,3.47
2022-10-06T02:50:08.598Z,3.44
2022-10-06T02:52:40.925Z,3.42
2022-10-06T02:55:10.033Z,3.38
2022-10-06T02:57:39.179Z,3.36
2022-10-06T03:00:08.865Z,3.33
2022-10-06T03:02:37.205Z,3.31
2022-10-06T03:05:05.906Z,3.30
2022-10-06T03:07:34.902Z,3.28
2022-10-06T03:10:04.381Z,3.24
2022-10-06T03:12:34.549Z,3.20
2022-10-06T03:15:03.455Z,3.18
2022-10-06T03:17:32.136Z,3.14
2022-10-06T03:19:59.774Z,3.11
2022-10-06T03:22:28.057Z,3.08
2022-10-06T03:24:58.536Z,3.05
2022-10-06T03:27:27.346Z,3.03
2022-10-06T03:30:00.194Z,3.00
2022-10-06T03:32:28.525Z,2.97
2022-10-06T03:34:56.015Z,2.93
2022-10-06T03:37:23.776Z,2.90
2022-10-06T03:39:51.463Z,2.89
2022-10-06T03:42:19.409Z,2.88
2022-10-06T03:44:47.561Z,2.86
2022-10-06T03:47:17.438Z,2.86
2022-10-06T03:49:45.867Z,2.84
2022-10-06T03:52:14.574Z,2.82
2022-10-06T03:54:42.915Z,2.79
2022-10-06T03:57:11.967Z,2.77
2022-10-06T03:59:41.350Z,2.74
2022-10-06T04:02:10.992Z,2.70
2022-10-06T04:04:38.475Z,2.67
2022-10-06T04:07:10.883Z,2.64
2022-10-06T04:09:39.571Z,2.61
2022-10-06T04:12:06.865Z,2.58
2022-10-06T04:14:37.468Z,2.57
2022-10-06T04:17:06.641Z,2.56
2022-10-06T04:19:39.626Z,2.55
2022-10-06T04:22:09.471Z,2.53
2022-10-06T04:24:37.187Z,2.52
2022-10-06T04:27:22.749Z,2.50
2022-10-06T04:30:08.806Z,2.50
2022-10-06T04:32:40.764Z,2.51
2022-10-06T04:35:23.064Z,2.51
2022-10-06T04:38:05.495Z,2.51
2022-10-06T04:40:33.968Z,2.50
2022-10-06T04:43:04.665Z,2.53
2022-10-06T04:45:34.233Z,2.58
2022-10-06T04:48:02.181Z,2.62
2022-10-06T04:50:36.565Z,2.66
2022-10-06T04:53:09.465Z,2.72
2022-10-06T04:55:37.935Z,2.76
2022-10-06T04:58:06.614Z,2.78
2022-10-06T05:00:36.102Z,2.82
2022-10-06T05:03:04.126Z,2.85
2022-10-06T05:05:31.940Z,2.88
2022-10-06T05:08:09.466Z,2.91
2022-10-06T05:10:44.164Z,2.94
2022-10-06T05:13:13.674Z,3.00
2022-10-06T05:15:41.430Z,3.05
2022-10-06T05:18:10.012Z,3.09
2022-10-06T05:20:37.781Z,3.09
2022-10-06T05:23:07.209Z,3.08
2022-10-06T05:25:34.837Z,3.09
2022-10-06T05:28:02.154Z,3.17
2022-10-06T05:30:29.445Z,3.25
2022-10-06T05:32:57.113Z,3.40
2022-10-06T05:35:26.067Z,3.57
2022-10-06T05:37:54.615Z,3.75
2022-10-06T05:40:23.375Z,3.93
2022-10-06T05:42:51.030Z,4.08
2022-10-06T05:45:18.505Z,4.22
2022-10-06T05:47:46.762Z,4.38
2022-10-06T05:50:14.712Z,4.50
2022-10-06T05:52:42.153Z,4.63
2022-10-06T05:55:09.888Z,4.79
2022-10-06T05:57:37.505Z,5.00
2022-10-06T06:00:06.193Z,5.25
2022-10-06T06:02:40.382Z,5.56
2022-10-06T06:05:08.889Z,5.89
2022-10-06T06:07:36.353Z,6.21
2022-10-06T06:10:04.732Z,6.49
2022-10-06T06:12:32.163Z,6.79
2022-10-06T06:15:38.306Z,7.12
2022-10-06T06:18:05.923Z,7.45
2022-10-06T06:20:33.363Z,7.66
2022-10-06T06:23:00.926Z,7.79
2022-10-06T06:25:28.842Z,8.06
2022-10-06T06:27:56.624Z,8.29
2022-10-06T06:30:25.854Z,8.52
2022-10-06T06:32:58.221Z,8.71
2022-10-06T06:35:25.688Z,8.71
2022-10-06T06:37:53.157Z,8.69
2022-10-06T06:40:21.518Z,8.94
2022-10-06T06:42:53.665Z,9.04
2022-10-06T06:46:04.813Z,9.37
2022-10-06T06:48:53.263Z,9.57
2022-10-06T06:51:25.376Z,10.15
2022-10-06T06:53:53.654Z,10.44
2022-10-06T06:56:21.623Z,10.70
2022-10-06T06:58:50.621Z,10.95
2022-10-06T07:01:22.118Z,11.25
2022-10-06T07:03:58.907Z,11.44
2022-10-06T07:06:31.624Z,11.61
2022-10-06T07:09:01.132Z,11.71
2022-10-06T07:11:31.393Z,11.59
2022-10-06T07:14:08.026Z,11.74
2022-10-06T07:16:54.230Z,12.27
2022-10-06T07:19:40.419Z,12.15
2022-10-06T07:22:26.914Z,12.39
2022-10-06T07:25:13.631Z,12.74
2022-10-06T07:27:51.721Z,12.86
2022-10-06T07:30:30.045Z,13.40
2022-10-06T07:33:04.734Z,13.39
2022-10-06T07:35:32.733Z,13.63
2022-10-06T07:38:07.461Z,14.08
2022-10-06T07:40:46.288Z,14.53
2022-10-06T07:43:23.982Z,14.77
2022-10-06T07:45:52.414Z,15.14
2022-10-06T07:48:40.468Z,15.32
2022-10-06T07:51:19.432Z,15.59
2022-10-06T07:53:50.569Z,16.28
2022-10-06T07:56:24.176Z,16.88
2022-10-06T07:58:56.047Z,17.02
2022-10-06T08:01:25.383Z,17.21
2022-10-06T08:03:52.785Z,17.40
2022-10-06T08:06:20.286Z,17.07
2022-10-06T08:08:52.479Z,16.78
2022-10-06T08:11:22.421Z,17.19
2022-10-06T08:13:51.306Z,17.77
2022-10-06T08:16:22.253Z,17.84
2022-10-06T08:18:54.694Z,18.60
2022-10-06T08:21:25.159Z,19.00
2022-10-06T08:23:54.510Z,19.30
2022-10-06T08:26:23.116Z,20.13
2022-10-06T08:28:53.454Z,20.21
2022-10-06T08:31:23.149Z,20.44
2022-10-06T08:33:56.346Z,20.70
2022-10-06T08:36:30.918Z,21.16
2022-10-06T08:38:59.981Z,21.74
2022-10-06T08:41:41.850Z,22.05
2022-10-06T08:44:19.196Z,22.53
2022-10-06T08:46:54.584Z,22.90
2022-10-06T08:49:26.453Z,22.11
2022-10-06T08:52:14.830Z,21.53
2022-10-06T08:54:58.863Z,22.19
2022-10-06T08:57:41.181Z,22.61
2022-10-06T09:00:18.078Z,22.53
2022-10-06T09:02:50.021Z,22.23
2022-10-06T09:05:26.188Z,22.45
2022-10-06T09:08:37.769Z,22.92
2022-10-06T09:11:24.106Z,22.84
2022-10-06T09:14:01.857Z,22.15
2022-10-06T09:16:36.686Z,21.26
2022-10-06T09:19:20.760Z,20.50
2022-10-06T09:21:52.992Z,20.17
2022-10-06T09:24:34.288Z,21.06
2022-10-06T09:27:23.714Z,20.90
2022-10-06T09:29:51.552Z,21.57
2022-10-06T09:32:21.821Z,22.27
2022-10-06T09:34:51.252Z,22.50
2022-10-06T09:37:19.474Z,22.51
2022-10-06T09:39:50.414Z,23.00
2022-10-06T09:42:35.329Z,23.33
2022-10-06T09:45:07.540Z,22.54
2022-10-06T09:47:38.954Z,22.63
2022-10-06T09:50:11.879Z,22.06
2022-10-06T09:53:06.575Z,20.93
2022-10-06T09:55:45.335Z,21.26
2022-10-06T09:58:31.120Z,22.48
2022-10-06T10:01:11.633Z,23.34
2022-10-06T10:04:18.728Z,23.39
2022-10-06T10:06:42.218Z,23.50
2022-10-06T10:09:16.670Z,24.45
2022-10-06T10:12:17.925Z,24.39
2022-10-06T10:14:45.376Z,23.44
2022-10-06T10:17:19.947Z,23.48
2022-10-06T10:19:53.145Z,23.04
2022-10-06T10:22:30.886Z,22.62
2022-10-06T10:25:07.661Z,22.45
2022-10-06T10:27:49.216Z,23.23
2022-10-06T10:30:16.860Z,24.31
2022-10-06T10:33:16.471Z,24.56
2022-10-06T10:35:51.455Z,25.27
2022-10-06T10:38:21.962Z,25.24
2022-10-06T10:41:08.994Z,25.83
2022-10-06T10:43:45.941Z,26.29
2022-10-06T10:46:46.319Z,26.54
2022-10-06T10:49:19.897Z,26.25
2022-10-06T10:51:50.955Z,26.20
2022-10-06T10:54:30.250Z,25.90
2022-10-06T10:56:58.677Z,25.55
2022-10-06T10:59:34.822Z,25.56
2022-10-06T11:02:22.398Z,26.38
2022-10-06T11:05:03.277Z,25.94
2022-10-06T11:07:44.153Z,26.72
2022-10-06T11:10:26.370Z,27.17
2022-10-06T11:13:24.064Z,27.72
2022-10-06T11:16:41.727Z,27.08
2022-10-06T11:19:27.265Z,27.53
2022-10-06T11:22:02.593Z,27.15
2022-10-06T11:24:31.496Z,27.20
2022-10-06T11:27:27.242Z,27.15
2022-10-06T11:30:06.085Z,27.09
2022-10-06T11:32:44.975Z,27.10
2022-10-06T11:35:18.158Z,27.05
2022-10-06T11:38:02.464Z,26.60
2022-10-06T11:40:47.668Z,27.33
2022-10-06T11:43:22.965Z,27.81
2022-10-06T11:46:21.377Z,28.13
2022-10-06T11:48:48.660Z,26.93
2022-10-06T11:51:25.510Z,26.42
2022-10-06T11:53:58.958Z,26.59
2022-10-06T11:56:38.918Z,26.17
2022-10-06T11:59:32.072Z,25.78
2022-10-06T12:02:00.508Z,25.06
2022-10-06T12:04:28.591Z,26.04
2022-10-06T12:06:57.662Z,26.12
2022-10-06T12:09:44.780Z,26.70
2022-10-06T12:12:14.929Z,27.01
2022-10-06T12:18:36.675Z,27.54
2022-10-06T12:21:13.568Z,27.71
2022-10-06T12:23:58.120Z,27.85
2022-10-06T12:26:51.434Z,28.04
2022-10-06T12:29:37.657Z,27.71
2022-10-06T12:32:13.941Z,27.86
2022-10-06T12:34:45.665Z,28.34
2022-10-06T12:37:31.426Z,28.44
2022-10-06T12:40:43.877Z,28.38
2022-10-06T12:43:14.090Z,28.14
2022-10-06T12:45:46.700Z,28.52
2022-10-06T12:48:20.685Z,28.76
2022-10-06T12:50:53.192Z,28.74
2022-10-06T12:53:28.321Z,28.17
2022-10-06T12:56:02.346Z,27.78
2022-10-06T12:58:32.083Z,27.55
2022-10-06T13:01:12.783Z,27.62
2022-10-06T13:03:40.024Z,27.79
2022-10-06T13:06:09.091Z,27.84
2022-10-06T13:08:38.628Z,27.01
2022-10-06T13:11:24.510Z,27.30
2022-10-06T13:13:56.854Z,28.01
2022-10-06T13:16:28.550Z,28.52
2022-10-06T13:18:58.448Z,28.39
2022-10-06T13:21:26.195Z,28.71
2022-10-06T13:23:53.530Z,29.08
2022-10-06T13:26:21.425Z,29.18
2022-10-06T13:28:51.900Z,28.09
2022-10-06T13:31:23.616Z,27.85
2022-10-06T13:34:20.807Z,27.21
2022-10-06T13:36:50.823Z,27.47
2022-10-06T13:39:20.845Z,27.31
2022-10-06T13:42:10.124Z,27.17
2022-10-06T13:44:39.706Z,27.63
2022-10-06T13:47:18.845Z,27.61
2022-10-06T13:50:03.746Z,27.63
2022-10-06T13:52:43.344Z,27.56
2022-10-06T13:55:21.377Z,27.28
2022-10-06T13:58:01.994Z,27.10
2022-10-06T14:00:46.165Z,26.94
2022-10-06T14:06:16.515Z,26.81
2022-10-06T14:08:55.024Z,26.49
2022-10-06T14:11:28.785Z,26.31
2022-10-06T14:13:59.006Z,26.28
2022-10-06T14:16:28.273Z,26.13
2022-10-06T14:18:59.585Z,25.92
2022-10-06T14:21:36.165Z,25.72
2022-10-06T14:24:15.809Z,25.36
2022-10-06T14:26:44.733Z,25.05
2022-10-06T14:29:18.661Z,24.76
2022-10-06T14:31:46.805Z,24.67
2022-10-06T14:34:17.245Z,24.35
2022-10-06T14:36:47.019Z,23.96
2022-10-06T14:39:15.722Z,24.24
2022-10-06T14:41:45.078Z,24.02
2022-10-06T14:44:12.766Z,24.02
2022-10-06T14:46:41.928Z,23.95
2022-10-06T14:49:13.289Z,23.81
2022-10-06T14:51:43.146Z,23.43
2022-10-06T14:54:11.641Z,22.89
2022-10-06T14:56:39.891Z,22.32
2022-10-06T14:59:10.115Z,21.65
2022-10-06T15:01:40.153Z,21.28
2022-10-06T15:04:12.630Z,20.79
2022-10-06T15:06:58.929Z,20.22
2022-10-06T15:09:29.624Z,19.83
2022-10-06T15:11:59.438Z,19.86
2022-10-06T15:14:29.196Z,19.51
2022-10-06T15:16:59.606Z,19.03
2022-10-06T15:19:27.148Z,18.49
2022-10-06T15:21:54.312Z,18.12
2022-10-06T15:24:22.811Z,17.83
2022-10-06T15:27:08.774Z,17.39
2022-10-06T15:29:36.128Z,16.93
2022-10-06T15:32:05.824Z,16.42
2022-10-06T15:34:34.182Z,16.01
2022-10-06T15:37:02.390Z,15.71
2022-10-06T15:39:31.692Z,15.40
2022-10-06T15:41:59.003Z,15.10
2022-10-06T15:44:26.591Z,14.83
2022-10-06T15:46:56.101Z,14.55
2022-10-06T15:49:29.255Z,14.24
2022-10-06T15:51:59.649Z,13.99
2022-10-06T15:54:29.827Z,13.72
2022-10-06T15:57:02.153Z,13.41
2022-10-06T15:59:32.076Z,13.16
2022-10-06T16:02:03.510Z,12.96
2022-10-06T16:04:39.627Z,12.79
2022-10-06T16:07:07.894Z,12.62
2022-10-06T16:09:43.364Z,12.50
2022-10-06T16:12:17.663Z,12.38
2022-10-06T16:14:45.215Z,12.27
2022-10-06T16:17:13.696Z,12.16
2022-10-06T16:19:41.218Z,12.03
2022-10-06T16:22:11.465Z,11.94
2022-10-06T16:24:38.871Z,11.87
2022-10-06T16:27:06.901Z,11.79
2022-10-06T16:29:34.397Z,11.69
2022-10-06T16:32:03.637Z,11.62
2022-10-06T16:34:38.242Z,11.53
2022-10-06T16:37:12.833Z,11.46
2022-10-06T16:39:42.220Z,11.40
2022-10-06T16:42:09.769Z,11.34
2022-10-06T16:44:36.804Z,11.27
2022-10-06T16:47:04.014Z,11.19
2022-10-06T16:49:31.191Z,11.11
2022-10-06T16:52:16.373Z,11.02
2022-10-06T16:54:49.249Z,10.95
2022-10-06T16:57:16.380Z,10.88
2022-10-06T16:59:46.888Z,10.83
2022-10-06T17:02:14.390Z,10.75
2022-10-06T17:04:41.461Z,10.66
2022-10-06T17:07:09.065Z,10.59
2022-10-06T17:09:36.789Z,10.52
2022-10-06T17:12:04.445Z,10.44
2022-10-06T17:14:34.265Z,10.39
2022-10-06T17:17:01.617Z,10.32
2022-10-06T17:19:29.873Z,10.26
2022-10-06T17:21:59.464Z,10.21
2022-10-06T17:24:30.975Z,10.16
2022-10-06T17:26:58.579Z,10.12
2022-10-06T17:29:26.734Z,10.07
2022-10-06T17:31:58.091Z,10.03
2022-10-06T17:34:30.447Z,9.97
2022-10-06T17:37:00.670Z,9.90
2022-10-06T17:39:27.870Z,9.84
2022-10-06T17:41:56.361Z,9.75
2022-10-06T17:44:28.273Z,9.67
2022-10-06T17:46:58.019Z,9.61
2022-10-06T17:49:25.832Z,9.52
2022-10-06T17:51:54.724Z,9.44
2022-10-06T17:54:24.439Z,9.35
2022-10-06T17:56:55.201Z,9.29
2022-10-06T18:00:18.406Z,9.25
2022-10-06T18:02:47.145Z,9.16
2022-10-06T18:05:15.547Z,9.11
2022-10-06T18:07:43.942Z,9.07
2022-10-06T18:10:31.092Z,9.02
2022-10-06T18:12:59.655Z,8.97
2022-10-06T18:15:27.973Z,8.92
2022-10-06T18:17:56.352Z,8.84
2022-10-06T18:20:30.397Z,8.78
2022-10-06T18:22:59.011Z,8.70
2022-10-06T18:25:28.177Z,8.65
2022-10-06T18:27:56.698Z,8.59
2022-10-06T18:30:29.332Z,8.53
2022-10-06T18:36:14.648Z,8.40
2022-10-06T18:38:45.888Z,8.34
2022-10-06T18:41:17.850Z,8.29
2022-10-06T18:43:46.451Z,8.24
2022-10-06T18:46:35.072Z,8.20
2022-10-06T18:49:12.464Z,8.16
2022-10-06T18:52:00.586Z,8.15
2022-10-06T18:54:34.584Z,8.14
2022-10-06T18:57:04.750Z,8.08
2022-10-06T18:59:35.391Z,8.02
2022-10-06T19:02:05.559Z,7.94
2022-10-06T19:04:35.956Z,7.89
2022-10-06T19:07:04.254Z,7.83
2022-10-06T19:09:32.665Z,7.74
2022-10-06T19:12:02.092Z,7.69
2022-10-06T19:14:36.932Z,7.65
2022-10-06T19:17:09.565Z,7.61
2022-10-06T19:19:38.567Z,7.60
2022-10-06T19:22:07.366Z,7.59
2022-10-06T19:24:41.502Z,7.55
2022-10-06T19:27:13.503Z,7.49
2022-10-06T19:29:46.297Z,7.43
2022-10-06T19:32:17.202Z,7.35
2022-10-06T19:34:47.541Z,7.30
2022-10-06T19:37:16.584Z,7.28
2022-10-06T19:39:47.188Z,7.25
2022-10-06T19:42:37.735Z,7.22
2022-10-06T19:45:08.029Z,7.17
2022-10-06T19:47:36.379Z,7.13
2022-10-06T19:50:12.619Z,7.12
2022-10-06T19:52:42.283Z,7.08
2022-10-06T19:55:10.747Z,7.07
2022-10-06T19:57:39.383Z,7.06
2022-10-06T20:00:10.403Z,7.03
2022-10-06T20:02:44.391Z,7.00
2022-10-06T20:05:15.838Z,6.97
2022-10-06T20:07:46.244Z,6.93
2022-10-06T20:10:16.091Z,6.86
2022-10-06T20:12:44.601Z,6.83
2022-10-06T20:15:13.106Z,6.84
2022-10-06T20:17:42.609Z,6.84
2022-10-06T20:20:11.842Z,6.83
2022-10-06T20:22:40.402Z,6.84
2022-10-06T20:25:08.944Z,6.77
2022-10-06T20:27:37.707Z,6.69
2022-10-06T20:30:06.985Z,6.65
2022-10-06T20:32:35.793Z,6.62
2022-10-06T20:35:09.334Z,6.61
2022-10-06T20:37:42.360Z,6.60
2022-10-06T20:40:29.615Z,6.52
2022-10-06T20:42:59.608Z,6.45
2022-10-06T20:45:30.453Z,6.42
2022-10-06T20:48:00.408Z,6.43
2022-10-06T20:50:34.229Z,6.43
2022-10-06T20:53:07.493Z,6.43
2022-10-06T20:55:36.208Z,6.44
2022-10-06T20:58:04.845Z,6.41
2022-10-06T21:00:33.303Z,6.37
2022-10-06T21:03:03.131Z,6.32
2022-10-06T21:05:33.382Z,6.27
2022-10-06T21:08:02.338Z,6.19
2022-10-06T21:10:30.743Z,6.12
2022-10-06T21:12:59.355Z,6.09
2022-10-06T21:15:27.976Z,6.07
2022-10-06T21:17:56.757Z,6.08
2022-10-06T21:20:25.669Z,6.14
2022-10-06T21:22:54.662Z,6.16
2022-10-06T21:25:23.314Z,6.18
2022-10-06T21:27:52.233Z,6.28
2022-10-06T21:30:20.814Z,6.30
2022-10-06T21:32:49.775Z,6.29
2022-10-06T21:35:18.407Z,6.27
2022-10-06T21:37:47.355Z,6.23
2022-10-06T21:40:16.152Z,6.14
2022-10-06T21:42:45.135Z,6.04
2022-10-06T21:45:13.838Z,5.97
2022-10-06T21:47:43.357Z,5.93
2022-10-06T21:50:12.901Z,5.88
2022-10-06T21:52:41.669Z,5.85
2022-10-06T21:55:10.644Z,5.82
2022-10-06T21:57:40.114Z,5.80
2022-10-06T22:00:11.328Z,5.80
2022-10-06T22:02:44.246Z,5.78
2022-10-06T22:05:14.282Z,5.78
2022-10-06T22:07:44.020Z,5.76
2022-10-06T22:10:13.411Z,5.73
2022-10-06T22:12:43.856Z,5.73
2022-10-06T22:15:13.671Z,5.73
2022-10-06T22:17:42.874Z,5.72
2022-10-06T22:20:11.983Z,5.70
2022-10-06T22:22:41.041Z,5.69
2022-10-06T22:25:09.834Z,5.68
2022-10-06T22:27:39.537Z,5.66
2022-10-06T22:30:10.595Z,5.64
2022-10-06T22:32:40.212Z,5.64
2022-10-06T22:35:10.690Z,5.67
2022-10-06T22:37:39.831Z,5.72
2022-10-06T22:40:10.166Z,5.75
2022-10-06T22:42:39.664Z,5.78
2022-10-06T22:45:11.115Z,5.82
2022-10-06T22:47:41.588Z,5.86
2022-10-06T22:50:15.605Z,5.87
2022-10-06T22:52:45.952Z,5.89
2022-10-06T22:55:15.265Z,5.92
2022-10-06T22:57:50.497Z,5.92
2022-10-06T23:00:20.851Z,5.92
2022-10-06T23:02:50.267Z,5.92
2022-10-06T23:05:19.205Z,5.92
2022-10-06T23:07:48.915Z,5.89
2022-10-06T23:10:19.944Z,5.89
2022-10-06T23:12:53.174Z,5.86
2022-10-06T23:15:23.387Z,5.82
2022-10-06T23:17:54.112Z,5.80
2022-10-06T23:20:23.841Z,5.79
2022-10-06T23:22:57.034Z,5.78
2022-10-06T23:25:27.527Z,5.78
2022-10-06T23:27:56.943Z,5.78
2022-10-06T23:30:26.232Z,5.78
2022-10-06T23:32:56.854Z,5.79
2022-10-06T23:35:26.743Z,5.81
2022-10-06T23:37:58.383Z,5.83
2022-10-06T23:40:28.565Z,5.84
2022-10-06T23:42:59.651Z,5.86
2022-10-06T23:45:29.619Z,5.86
2022-10-06T23:48:01.244Z,5.86
2022-10-06T23:50:33.508Z,5.80
2022-10-06T23:53:04.150Z,5.74
2022-10-06T23:55:34.319Z,5.71
2022-10-06T23:58:05.486Z,5.68
